首页
METAR-TAF:

METAR-TAF

机场 :

悉尼机场

悉尼, 澳大利亚

纬度: 33-57S, 经度: 151-11E, 海拔: 6米

当前天气观测

该预报发布于11分钟前的00:00 UTC
风速10节,风向西
温度 15°C
湿度 33%
气压 1015 hPa
能见度10公里或以上
1500米以下无云,无积雨云

METAR: YSSY 170000Z 27010KT CAVOK 15/M01 Q1015 NOSIG

时间: 10:11 (00:11 UTC)

预报

该预报发布于1小时和9分钟前的23:02 UTC
预报有效从17日的 00点(UTC)到 18日的 06点(UTC)
风速12节,风向西
能见度10公里或以上
1500米以下无云,无积雨云
从 17日的 0600点(UTC)
风速6节,风向
能见度10公里或以上
1500米以下无云,无积雨云
从 17日的 1000点(UTC)
风速8节,风向西转西北
能见度10公里或以上
1500米以下无云,无积雨云
从 18日的 0000点(UTC)
风速20节,风向西转西北,有时为30节阵风
能见度10公里或以上
1500米以下无云,无积雨云

TAF: YSSY 162302Z 1700/1806 26012KT CAVOK FM170600 09006KT CAVOK FM171000 29008KT CAVOK FM180000 30020G30KT CAVOK

超过4000个机场的气象观测和天气预报(METAR&TAF报告)。

可查询的气象台以黄色和红色小点在地图上表示。

将鼠标移到小点上方,可查看气象台名称。

然后点击查看天气观测和预报。

如需切换地图:点击带黑十字的绿色按钮放大地图;点击带横线的绿色按钮缩小地图;或者点击绿色箭头查看邻近地区的地图。


METAR-TAF: